Time;durP1;ratioP1;P1;durP2;ratioP2;P2;SDS_P1;SDS_P2;PMS_P1;PMS_P2;Temp;Humidity;BMP_temperature;BMP_pressure;BME280_temperature;BME280_humidity;BME280_pressure;Samples;Min_cycle;Max_cycle;Signal;HPM_P1;HPM_P2
2022/11/28 00:02:18;;;;;;;73.60;34.53;;;3.90;99.90;;;;;;4995211;28;20081;-67
2022/11/28 00:04:44;;;;;;;68.88;36.67;;;4.00;99.90;;;;;;4994916;28;20034;-67
2022/11/28 00:07:10;;;;;;;60.65;32.40;;;4.00;99.90;;;;;;4994878;28;20125;-68
2022/11/28 00:09:36;;;;;;;65.82;36.72;;;4.00;99.90;;;;;;4994880;28;20054;-66
2022/11/28 00:12:02;;;;;;;69.47;35.63;;;4.00;99.90;;;;;;4995349;28;20062;-67
2022/11/28 00:14:28;;;;;;;75.47;39.50;;;4.10;99.90;;;;;;4994856;28;20098;-68
2022/11/28 00:16:53;;;;;;;74.43;38.15;;;4.00;99.90;;;;;;4994782;28;20394;-67
2022/11/28 00:19:19;;;;;;;68.05;36.80;;;4.10;99.90;;;;;;4994836;28;20027;-67
2022/11/28 00:21:45;;;;;;;69.22;37.65;;;4.10;99.90;;;;;;4994759;28;20022;-66
2022/11/28 00:24:11;;;;;;;71.13;37.03;;;4.00;99.90;;;;;;4995026;28;20031;-66
2022/11/28 00:26:39;;;;;;;62.33;35.05;;;4.10;99.90;;;;;;4994983;28;20105;-67
2022/11/28 00:29:06;;;;;;;73.10;37.00;;;4.10;99.90;;;;;;4994488;28;20459;-67
2022/11/28 00:31:35;;;;;;;78.32;39.42;;;4.10;99.90;;;;;;4994701;28;20601;-67
2022/11/28 00:34:02;;;;;;;67.32;36.05;;;4.20;99.90;;;;;;4994776;28;20022;-68
2022/11/28 00:36:28;;;;;;;67.00;34.28;;;4.30;99.90;;;;;;4994953;28;20118;-67
2022/11/28 00:38:54;;;;;;;61.65;31.73;;;4.40;99.90;;;;;;4993956;28;20026;-67
2022/11/28 00:41:23;;;;;;;63.65;34.45;;;4.40;99.90;;;;;;4994261;28;20045;-67
2022/11/28 00:43:51;;;;;;;67.53;33.75;;;4.50;99.90;;;;;;4994277;28;20026;-68
2022/11/28 00:46:18;;;;;;;63.95;32.70;;;4.60;99.90;;;;;;4994222;28;20030;-67
2022/11/28 00:48:44;;;;;;;68.57;34.17;;;4.60;99.90;;;;;;4994365;28;20026;-67
2022/11/28 00:51:19;;;;;;;63.28;33.42;;;4.60;99.90;;;;;;4994349;28;20108;-67
2022/11/28 00:53:47;;;;;;;62.95;32.53;;;4.50;99.90;;;;;;4991914;28;20041;-67
2022/11/28 00:56:15;;;;;;;72.45;34.17;;;4.40;99.90;;;;;;4988253;28;20018;-68
2022/11/28 00:58:42;;;;;;;59.50;32.20;;;4.40;99.90;;;;;;4992197;28;20034;-68
2022/11/28 01:01:29;;;;;;;61.67;32.67;;;4.40;99.90;;;;;;4993984;28;20369;-68
2022/11/28 01:03:56;;;;;;;62.95;31.90;;;4.50;99.90;;;;;;4987699;28;20038;-68
2022/11/28 01:06:29;;;;;;;64.20;31.73;;;4.50;99.90;;;;;;4989944;28;20034;-70
2022/11/28 01:08:56;;;;;;;63.92;31.40;;;4.50;99.90;;;;;;5004114;28;20472;-68
2022/11/28 01:11:23;;;;;;;57.03;31.00;;;4.50;99.90;;;;;;4991227;28;20027;-68
2022/11/28 01:13:52;;;;;;;57.42;33.05;;;4.60;99.90;;;;;;4990766;28;20031;-67
2022/11/28 01:16:18;;;;;;;59.35;29.80;;;4.70;99.90;;;;;;4982591;28;20452;-68
2022/11/28 01:18:44;;;;;;;57.10;31.05;;;4.60;99.90;;;;;;4993837;28;20026;-72
2022/11/28 01:21:09;;;;;;;53.95;30.70;;;4.50;99.90;;;;;;4985480;28;20121;-71
2022/11/28 01:23:35;;;;;;;65.57;33.03;;;4.60;99.90;;;;;;4991906;28;20037;-69
2022/11/28 01:26:03;;;;;;;63.95;32.35;;;4.80;99.90;;;;;;4989892;28;20030;-68
2022/11/28 01:28:29;;;;;;;58.85;32.67;;;4.70;99.90;;;;;;4980438;28;20030;-69
2022/11/28 01:30:55;;;;;;;66.03;31.83;;;4.80;99.90;;;;;;4993965;28;20381;-71
2022/11/28 01:33:21;;;;;;;66.10;32.30;;;4.70;99.90;;;;;;4989544;28;20389;-72
2022/11/28 01:35:55;;;;;;;68.30;33.85;;;4.60;99.90;;;;;;4983724;28;20030;-71
2022/11/28 01:38:21;;;;;;;70.40;35.13;;;4.50;99.90;;;;;;4977871;28;20086;-69
2022/11/28 01:40:47;;;;;;;63.88;34.17;;;4.50;99.90;;;;;;4994063;28;20069;-71
2022/11/28 01:43:13;;;;;;;70.03;33.42;;;4.40;99.90;;;;;;4990187;28;20037;-71
2022/11/28 01:45:39;;;;;;;70.43;37.90;;;4.60;99.90;;;;;;4982923;28;20030;-69
2022/11/28 01:48:07;;;;;;;70.45;35.65;;;4.60;99.90;;;;;;4982839;28;20026;-68
2022/11/28 01:50:34;;;;;;;75.75;35.58;;;4.50;99.90;;;;;;4977919;28;20034;-68
2022/11/28 01:53:05;;;;;;;76.82;37.20;;;4.30;99.90;;;;;;4989034;28;20030;-67
2022/11/28 01:55:35;;;;;;;72.07;35.00;;;4.30;99.90;;;;;;4990343;28;20380;-68
2022/11/28 01:58:02;;;;;;;71.00;37.97;;;4.40;99.90;;;;;;5002175;28;20487;-68
2022/11/28 02:00:28;;;;;;;72.05;33.33;;;4.40;99.90;;;;;;4997086;28;20079;-69
2022/11/28 02:03:04;;;;;;;72.95;35.85;;;4.40;99.90;;;;;;4993384;28;20018;-69
2022/11/28 02:05:30;;;;;;;72.00;34.42;;;4.40;99.90;;;;;;4980227;28;20110;-68
2022/11/28 02:07:55;;;;;;;69.97;34.00;;;4.50;99.90;;;;;;4990910;28;20090;-68
2022/11/28 02:10:31;;;;;;;76.03;35.00;;;4.50;99.90;;;;;;4988721;28;20081;-68
2022/11/28 02:13:18;;;;;;;74.63;36.65;;;4.40;99.90;;;;;;4993702;28;20035;-67
2022/11/28 02:16:01;;;;;;;78.90;37.00;;;4.30;99.90;;;;;;4991962;28;20030;-68
2022/11/28 02:18:30;;;;;;;70.85;33.90;;;4.40;99.90;;;;;;4980278;28;20034;-67
2022/11/28 02:21:06;;;;;;;70.05;35.90;;;4.40;99.90;;;;;;4987337;28;20049;-71
2022/11/28 02:23:58;;;;;;;67.53;36.17;;;4.40;99.90;;;;;;4992857;28;20038;-69
2022/11/28 02:26:39;;;;;;;73.43;35.90;;;4.50;99.90;;;;;;4993260;28;20117;-70
2022/11/28 02:29:17;;;;;;;69.40;34.03;;;4.40;99.90;;;;;;4992516;28;20069;-68
2022/11/28 02:32:11;;;;;;;67.65;33.40;;;4.30;99.90;;;;;;4992993;28;20096;-67
2022/11/28 02:35:13;;;;;;;64.38;32.30;;;4.40;99.90;;;;;;4992278;28;20034;-68
2022/11/28 02:38:14;;;;;;;74.57;33.03;;;4.40;99.90;;;;;;4983361;28;20053;-68
2022/11/28 02:40:46;;;;;;;61.53;31.05;;;4.50;99.90;;;;;;4992839;28;20038;-68
2022/11/28 02:43:25;;;;;;;66.93;33.97;;;4.60;99.90;;;;;;4992811;28;20026;-68
2022/11/28 02:46:24;;;;;;;61.90;31.45;;;4.60;99.90;;;;;;4984935;28;20034;-68
2022/11/28 02:48:58;;;;;;;61.53;32.05;;;4.70;99.90;;;;;;4970992;28;20050;-68
2022/11/28 02:51:32;;;;;;;72.05;34.47;;;4.60;99.90;;;;;;4971102;28;20230;-67
2022/11/28 02:54:00;;;;;;;85.95;37.30;;;4.60;99.90;;;;;;4970846;28;20035;-67
2022/11/28 02:56:29;;;;;;;65.53;33.28;;;4.50;99.90;;;;;;4962294;28;20035;-67
2022/11/28 02:58:55;;;;;;;64.20;34.70;;;4.50;99.90;;;;;;4969111;28;20038;-67
2022/11/28 03:01:35;;;;;;;67.38;33.50;;;4.60;99.90;;;;;;4971235;28;20043;-68
2022/11/28 03:04:29;;;;;;;68.30;34.80;;;4.70;99.90;;;;;;4969339;28;20038;-68
2022/11/28 03:07:23;;;;;;;72.10;34.83;;;4.60;99.90;;;;;;4947077;28;20129;-68
2022/11/28 03:10:12;;;;;;;68.47;34.00;;;4.50;99.90;;;;;;4970634;28;20027;-67
2022/11/28 03:12:53;;;;;;;73.43;36.53;;;4.60;99.90;;;;;;4970665;28;20485;-68
2022/11/28 03:15:25;;;;;;;67.00;34.35;;;4.50;99.90;;;;;;4970294;28;20043;-67
2022/11/28 03:17:54;;;;;;;60.83;32.70;;;4.60;99.90;;;;;;4970218;28;20058;-67
2022/11/28 03:20:49;;;;;;;69.38;35.53;;;4.60;99.90;;;;;;4970569;28;20073;-66
2022/11/28 03:23:28;;;;;;;67.97;35.17;;;4.60;99.90;;;;;;4969550;28;20035;-68
2022/11/28 03:25:54;;;;;;;66.35;32.60;;;4.60;99.90;;;;;;4991513;28;20491;-68
2022/11/28 03:28:32;;;;;;;64.25;33.05;;;4.60;99.90;;;;;;4992232;28;20093;-69
2022/11/28 03:31:06;;;;;;;73.72;35.97;;;4.60;99.90;;;;;;4992223;28;20117;-69
2022/11/28 03:33:42;;;;;;;69.97;36.88;;;4.60;99.90;;;;;;4992167;28;20038;-68
2022/11/28 03:36:16;;;;;;;76.85;37.63;;;4.70;99.90;;;;;;4988834;28;20023;-67
2022/11/28 03:38:44;;;;;;;72.72;35.38;;;4.70;99.90;;;;;;4992032;28;20026;-67
2022/11/28 03:41:17;;;;;;;70.43;35.85;;;4.60;99.90;;;;;;4992429;28;20022;-69
2022/11/28 03:43:48;;;;;;;73.20;35.60;;;4.60;99.90;;;;;;4992073;28;20149;-68
2022/11/28 03:46:18;;;;;;;70.97;34.47;;;4.60;99.90;;;;;;4991428;28;20033;-68
2022/11/28 03:48:48;;;;;;;73.45;36.85;;;4.50;99.90;;;;;;4992118;28;20102;-67
2022/11/28 03:51:48;;;;;;;70.20;34.38;;;4.50;99.90;;;;;;4992097;28;20031;-66
2022/11/28 03:54:20;;;;;;;75.22;34.85;;;4.60;99.90;;;;;;4989811;28;20121;-70
2022/11/28 03:56:58;;;;;;;70.20;35.65;;;4.50;99.90;;;;;;4985254;28;20074;-67
2022/11/28 03:59:45;;;;;;;74.32;33.38;;;4.50;99.90;;;;;;4992080;28;20105;-67
2022/11/28 04:02:27;;;;;;;77.82;34.95;;;4.50;99.90;;;;;;4991528;28;20038;-68
2022/11/28 04:05:15;;;;;;;72.03;36.20;;;4.50;99.90;;;;;;4984840;28;20031;-69
2022/11/28 04:08:04;;;;;;;69.53;34.78;;;4.50;99.90;;;;;;4990277;28;20540;-68
2022/11/28 04:10:37;;;;;;;78.85;36.40;;;4.50;99.90;;;;;;4990207;28;20053;-68
2022/11/28 04:13:20;;;;;;;71.07;35.63;;;4.50;99.90;;;;;;4971244;28;20074;-67
2022/11/28 04:16:27;;;;;;;77.07;34.88;;;4.50;99.90;;;;;;4974067;28;20077;-68
2022/11/28 04:18:53;;;;;;;72.70;36.95;;;4.50;99.90;;;;;;4980431;28;20022;-67
2022/11/28 04:21:31;;;;;;;80.22;35.83;;;4.50;99.90;;;;;;4990118;28;20370;-68
2022/11/28 04:24:14;;;;;;;77.00;41.72;;;4.40;99.90;;;;;;4991506;28;20125;-68
2022/11/28 04:26:45;;;;;;;79.28;35.90;;;4.40;99.90;;;;;;4988326;28;20033;-68
2022/11/28 04:29:16;;;;;;;74.38;36.72;;;4.50;99.90;;;;;;4992431;28;20109;-68
2022/11/28 04:31:44;;;;;;;68.93;37.67;;;4.60;99.90;;;;;;4994989;28;20022;-67
2022/11/28 04:34:14;;;;;;;89.20;37.97;;;4.40;99.90;;;;;;4994457;28;20089;-69
2022/11/28 04:36:43;;;;;;;71.07;36.25;;;4.40;99.90;;;;;;4993745;28;20102;-68
2022/11/28 04:39:16;;;;;;;66.55;35.22;;;4.30;99.90;;;;;;4994849;28;20065;-67
2022/11/28 04:41:50;;;;;;;65.45;31.23;;;4.30;99.90;;;;;;4994257;28;20045;-67
2022/11/28 04:44:41;;;;;;;57.63;29.65;;;4.30;99.90;;;;;;4994526;28;20456;-67
2022/11/28 04:47:07;;;;;;;53.50;29.85;;;4.10;99.90;;;;;;4983496;28;20582;-67
2022/11/28 04:49:33;;;;;;;54.20;29.27;;;4.10;99.90;;;;;;4994758;28;20027;-67
2022/11/28 04:52:34;;;;;;;60.17;29.20;;;4.00;99.90;;;;;;4994976;28;20026;-67
2022/11/28 04:55:32;;;;;;;59.83;31.42;;;4.00;99.90;;;;;;4991435;28;20421;-66
2022/11/28 04:58:21;;;;;;;60.50;32.40;;;4.10;99.90;;;;;;4972721;28;20050;-68
2022/11/28 05:00:49;;;;;;;50.42;27.83;;;4.00;99.90;;;;;;4966654;28;20043;-69
2022/11/28 05:03:16;;;;;;;58.35;29.45;;;4.00;99.90;;;;;;4969262;28;20042;-72
2022/11/28 05:05:50;;;;;;;72.43;36.42;;;3.90;99.90;;;;;;4971506;28;20061;-68
2022/11/28 05:08:17;;;;;;;75.50;33.28;;;3.90;99.90;;;;;;4972656;28;20138;-69
2022/11/28 05:10:43;;;;;;;68.03;29.63;;;3.70;99.90;;;;;;4972565;28;20154;-69
2022/11/28 05:13:09;;;;;;;71.00;32.10;;;3.70;99.90;;;;;;4972683;28;20038;-68
2022/11/28 05:15:35;;;;;;;83.32;34.03;;;3.80;99.90;;;;;;4965798;28;20524;-70
2022/11/28 05:18:01;;;;;;;85.35;34.15;;;3.80;99.90;;;;;;4972291;28;20479;-68
2022/11/28 05:20:27;;;;;;;71.35;34.30;;;3.70;99.90;;;;;;4972536;28;20039;-68
2022/11/28 05:22:53;;;;;;;104.07;33.40;;;3.70;99.90;;;;;;4971972;28;20069;-69
2022/11/28 05:25:19;;;;;;;94.78;35.63;;;3.70;99.90;;;;;;4964519;28;20537;-69
2022/11/28 05:27:44;;;;;;;103.93;36.38;;;3.70;99.90;;;;;;4957036;28;20116;-68
2022/11/28 05:30:11;;;;;;;116.68;39.50;;;3.60;99.90;;;;;;4971881;28;20031;-68
2022/11/28 05:32:37;;;;;;;103.20;35.42;;;3.50;99.90;;;;;;4972338;28;20023;-73
2022/11/28 05:35:03;;;;;;;123.47;41.42;;;3.50;99.90;;;;;;4984419;28;20121;-68
2022/11/28 05:37:29;;;;;;;119.93;46.03;;;3.50;99.90;;;;;;4992900;28;20069;-68
2022/11/28 05:39:55;;;;;;;112.07;38.72;;;3.50;99.90;;;;;;4993833;28;20469;-68
2022/11/28 05:42:21;;;;;;;72.75;32.92;;;3.50;99.90;;;;;;4993906;28;20022;-69
2022/11/28 05:44:47;;;;;;;67.22;32.05;;;3.50;99.90;;;;;;4990687;28;20031;-68
2022/11/28 05:47:14;;;;;;;74.85;36.85;;;3.60;99.90;;;;;;4991959;28;20385;-69
2022/11/28 05:49:40;;;;;;;91.78;41.58;;;3.60;99.90;;;;;;4993880;28;20026;-69
2022/11/28 05:52:07;;;;;;;97.47;37.70;;;3.60;99.90;;;;;;4994020;28;20042;-68
2022/11/28 05:54:33;;;;;;;80.93;34.15;;;3.50;99.90;;;;;;4992820;28;20093;-68
2022/11/28 05:56:59;;;;;;;77.78;30.80;;;3.50;99.90;;;;;;4988112;28;20030;-68
2022/11/28 05:59:24;;;;;;;67.85;30.77;;;3.50;99.90;;;;;;4987594;28;20033;-69
2022/11/28 06:01:50;;;;;;;60.20;28.80;;;3.60;99.90;;;;;;4985424;28;20061;-68
2022/11/28 06:04:16;;;;;;;72.40;31.35;;;3.60;99.90;;;;;;4992148;28;20378;-68
2022/11/28 06:06:42;;;;;;;96.82;31.38;;;3.60;99.90;;;;;;4993705;28;20034;-69
2022/11/28 06:09:08;;;;;;;93.28;31.83;;;3.50;99.90;;;;;;4991890;28;20022;-69
2022/11/28 06:11:35;;;;;;;109.15;34.67;;;3.40;99.90;;;;;;4993327;28;20026;-68
2022/11/28 06:14:02;;;;;;;78.32;32.05;;;3.40;99.90;;;;;;4993186;28;20026;-68
2022/11/28 06:16:31;;;;;;;123.90;35.33;;;3.40;99.90;;;;;;4993222;28;20030;-68
2022/11/28 06:18:59;;;;;;;81.70;33.50;;;3.30;99.90;;;;;;4993350;28;20030;-68
2022/11/28 06:21:25;;;;;;;73.60;29.48;;;3.30;99.90;;;;;;4992551;28;20026;-68
2022/11/28 06:23:52;;;;;;;60.13;29.60;;;3.30;99.90;;;;;;4993144;28;20034;-68
2022/11/28 06:26:20;;;;;;;66.95;30.38;;;3.30;99.90;;;;;;4993271;28;20388;-69
2022/11/28 06:28:47;;;;;;;54.65;26.50;;;3.20;99.90;;;;;;4993216;28;20054;-68
2022/11/28 06:31:15;;;;;;;54.83;28.52;;;3.20;99.90;;;;;;4992721;28;20112;-70
2022/11/28 06:33:41;;;;;;;59.65;26.67;;;3.20;99.90;;;;;;4992912;28;20022;-68
2022/11/28 06:36:11;;;;;;;69.25;30.50;;;3.20;99.90;;;;;;4993063;28;20362;-67
2022/11/28 06:38:37;;;;;;;67.85;27.15;;;3.20;99.90;;;;;;4991548;28;20117;-68
2022/11/28 06:41:06;;;;;;;65.45;26.27;;;3.20;99.90;;;;;;4991006;28;20440;-67
2022/11/28 06:43:32;;;;;;;88.20;33.35;;;3.20;99.90;;;;;;4992609;28;20030;-67
2022/11/28 06:45:58;;;;;;;120.90;31.85;;;3.10;99.90;;;;;;4993074;28;20034;-67
2022/11/28 06:48:24;;;;;;;95.50;31.63;;;3.00;99.90;;;;;;4992638;28;20037;-68
2022/11/28 06:50:50;;;;;;;77.47;29.45;;;2.90;99.90;;;;;;4992457;28;20584;-68
2022/11/28 06:53:16;;;;;;;113.88;36.53;;;2.90;99.90;;;;;;4992164;28;20032;-68
2022/11/28 06:55:42;;;;;;;87.78;31.33;;;2.90;99.90;;;;;;4992267;28;20027;-68
2022/11/28 06:58:08;;;;;;;73.82;30.77;;;3.10;99.90;;;;;;4992585;28;20041;-68
2022/11/28 07:00:35;;;;;;;84.30;31.17;;;3.20;99.90;;;;;;4980768;28;20401;-69
2022/11/28 07:03:01;;;;;;;81.60;33.45;;;3.30;99.90;;;;;;4992489;28;20037;-68
2022/11/28 07:05:27;;;;;;;91.18;33.17;;;3.30;99.90;;;;;;4992195;28;20031;-68
2022/11/28 07:07:53;;;;;;;79.47;35.72;;;3.30;99.90;;;;;;4992320;28;20045;-68
2022/11/28 07:10:20;;;;;;;89.47;31.50;;;3.30;99.90;;;;;;4992049;28;20519;-70
2022/11/28 07:12:46;;;;;;;109.47;45.75;;;3.40;99.90;;;;;;4992016;28;20054;-69
2022/11/28 07:15:12;;;;;;;98.82;42.05;;;3.50;99.90;;;;;;4992441;28;20022;-68
2022/11/28 07:17:38;;;;;;;70.38;31.35;;;3.60;99.90;;;;;;4991089;28;20081;-69
2022/11/28 07:20:05;;;;;;;84.03;41.47;;;3.60;99.90;;;;;;4992518;28;20139;-68
2022/11/28 07:22:31;;;;;;;104.78;39.40;;;3.70;99.90;;;;;;4992673;28;20057;-68
2022/11/28 07:24:56;;;;;;;71.57;33.60;;;3.80;99.90;;;;;;4992301;28;20038;-68
2022/11/28 07:27:22;;;;;;;85.40;38.28;;;3.90;99.90;;;;;;4990626;28;20026;-69
2022/11/28 07:29:48;;;;;;;77.20;33.78;;;3.80;99.90;;;;;;4991043;28;20038;-71
2022/11/28 07:32:14;;;;;;;76.30;39.30;;;4.00;99.90;;;;;;4980885;28;20031;-69
2022/11/28 07:34:41;;;;;;;75.38;37.38;;;3.90;99.90;;;;;;4987201;28;20062;-71
2022/11/28 07:37:07;;;;;;;74.32;36.30;;;3.90;99.90;;;;;;4992230;28;20381;-69
2022/11/28 07:39:33;;;;;;;78.00;34.03;;;3.90;99.90;;;;;;4991851;28;20045;-69
2022/11/28 07:41:58;;;;;;;66.95;32.13;;;4.00;99.90;;;;;;4991990;28;20034;-69
2022/11/28 07:44:24;;;;;;;76.20;36.55;;;4.00;99.90;;;;;;4991888;28;20061;-69
2022/11/28 07:46:50;;;;;;;69.50;35.13;;;4.00;99.90;;;;;;4992339;28;20062;-69
2022/11/28 07:49:16;;;;;;;72.60;34.88;;;4.10;99.90;;;;;;4991844;28;20030;-70
2022/11/28 07:51:42;;;;;;;71.20;32.72;;;4.10;99.90;;;;;;4992392;28;20085;-69
2022/11/28 07:54:08;;;;;;;70.90;31.90;;;4.10;99.90;;;;;;4992113;28;20022;-70
2022/11/28 07:56:37;;;;;;;62.22;32.00;;;4.30;99.90;;;;;;4992305;28;20026;-68
2022/11/28 07:59:03;;;;;;;60.30;29.50;;;4.30;99.90;;;;;;4980337;28;20050;-69
2022/11/28 08:01:32;;;;;;;61.92;29.95;;;4.30;99.90;;;;;;4991435;28;20030;-71
2022/11/28 08:03:59;;;;;;;56.92;30.33;;;4.40;99.90;;;;;;4991657;28;20061;-73
2022/11/28 08:06:27;;;;;;;58.10;32.80;;;4.50;99.90;;;;;;4995072;28;20030;-70
2022/11/28 08:08:54;;;;;;;55.88;31.23;;;4.50;99.90;;;;;;4994587;28;20058;-71
2022/11/28 08:11:21;;;;;;;67.50;35.30;;;4.60;99.90;;;;;;4993579;28;20038;-69
2022/11/28 08:13:48;;;;;;;69.72;32.55;;;4.70;99.90;;;;;;4988343;28;20022;-69
2022/11/28 08:16:21;;;;;;;68.90;39.65;;;4.80;99.90;;;;;;4995037;28;20042;-69
2022/11/28 08:18:49;;;;;;;54.00;29.92;;;4.90;99.90;;;;;;4994674;28;20046;-69
2022/11/28 08:21:18;;;;;;;51.35;26.90;;;4.80;99.90;;;;;;4994986;28;20014;-69
2022/11/28 08:23:44;;;;;;;52.38;26.80;;;4.80;99.90;;;;;;4993927;28;20065;-69
2022/11/28 08:26:15;;;;;;;57.00;29.83;;;4.80;99.90;;;;;;4980662;28;20109;-69
2022/11/28 08:28:42;;;;;;;55.90;29.65;;;4.60;99.90;;;;;;4993113;28;20026;-69
2022/11/28 08:31:17;;;;;;;52.38;27.35;;;4.70;99.90;;;;;;4994859;28;20033;-69
2022/11/28 08:33:44;;;;;;;60.30;33.70;;;4.80;99.90;;;;;;4995002;28;20218;-69
2022/11/28 08:36:11;;;;;;;62.28;31.58;;;4.60;99.90;;;;;;5009890;28;20493;-69
2022/11/28 08:38:38;;;;;;;49.63;27.58;;;4.60;99.90;;;;;;4994605;28;20477;-69
2022/11/28 08:41:07;;;;;;;56.70;27.23;;;4.60;99.90;;;;;;4994981;28;20400;-69
2022/11/28 08:43:35;;;;;;;53.88;28.83;;;4.60;99.90;;;;;;4994767;28;20030;-72
2022/11/28 08:46:02;;;;;;;47.92;27.85;;;4.60;99.90;;;;;;4994671;28;20096;-68
2022/11/28 08:48:29;;;;;;;56.55;30.45;;;4.50;99.90;;;;;;4994089;28;20120;-69
2022/11/28 08:50:55;;;;;;;49.40;27.52;;;4.50;99.90;;;;;;4993544;28;20741;-69
2022/11/28 08:53:21;;;;;;;52.88;28.52;;;4.50;99.90;;;;;;4992723;28;20118;-70
2022/11/28 08:55:47;;;;;;;52.25;27.80;;;4.60;99.90;;;;;;4982787;28;20023;-69
2022/11/28 08:58:14;;;;;;;50.28;28.92;;;4.70;99.90;;;;;;4988238;28;20393;-69
2022/11/28 09:00:43;;;;;;;52.28;29.27;;;4.70;99.90;;;;;;4985302;28;20425;-69
2022/11/28 09:03:14;;;;;;;56.33;30.73;;;4.70;99.90;;;;;;4983551;28;20539;-69
2022/11/28 09:05:41;;;;;;;57.42;30.83;;;4.70;99.90;;;;;;4994548;28;20034;-69
2022/11/28 09:08:07;;;;;;;59.30;29.00;;;4.70;99.90;;;;;;4992361;28;20413;-67
2022/11/28 09:10:37;;;;;;;56.25;30.70;;;4.80;99.90;;;;;;4992602;28;20032;-75
2022/11/28 09:13:04;;;;;;;59.72;31.35;;;4.70;99.90;;;;;;4988830;28;20027;-69
2022/11/28 09:15:31;;;;;;;64.72;32.75;;;4.80;99.90;;;;;;4994071;28;20081;-68
2022/11/28 09:17:57;;;;;;;52.70;30.90;;;4.90;99.90;;;;;;4993967;28;20050;-69
2022/11/28 09:20:22;;;;;;;55.45;31.45;;;4.90;99.90;;;;;;4993635;28;20558;-69
2022/11/28 09:22:48;;;;;;;66.18;33.13;;;4.90;99.90;;;;;;4993506;28;20113;-70
2022/11/28 09:25:14;;;;;;;68.03;34.63;;;5.00;99.90;;;;;;4979838;28;20042;-71
2022/11/28 09:27:40;;;;;;;60.25;31.73;;;5.10;99.90;;;;;;4993519;28;20035;-68
2022/11/28 09:30:07;;;;;;;58.33;31.77;;;5.10;99.90;;;;;;4994046;28;20053;-69
2022/11/28 09:32:34;;;;;;;58.08;31.65;;;5.20;99.90;;;;;;4993938;28;20030;-69
2022/11/28 09:35:00;;;;;;;53.78;27.77;;;5.10;99.90;;;;;;4993920;28;20022;-69
2022/11/28 09:37:29;;;;;;;59.92;31.65;;;5.30;99.90;;;;;;4991364;28;20049;-71
2022/11/28 09:39:55;;;;;;;64.38;31.50;;;5.40;99.90;;;;;;4993688;28;20552;-69
2022/11/28 09:42:36;;;;;;;56.78;29.73;;;5.50;99.90;;;;;;4993716;28;20114;-70
2022/11/28 09:45:07;;;;;;;55.97;28.63;;;5.40;99.90;;;;;;4980187;28;20836;-70
2022/11/28 09:47:35;;;;;;;51.05;27.40;;;5.60;99.90;;;;;;4980876;28;20022;-69
2022/11/28 09:50:19;;;;;;;54.25;27.33;;;5.60;99.90;;;;;;4993500;28;20035;-69
2022/11/28 09:53:27;;;;;;;51.42;27.90;;;5.60;99.90;;;;;;4986283;28;20027;-73
2022/11/28 09:56:02;;;;;;;51.28;30.05;;;5.70;99.90;;;;;;4931508;29;20036;-72
2022/11/28 09:58:31;;;;;;;49.33;27.73;;;5.70;99.90;;;;;;4933341;29;20389;-70
2022/11/28 10:01:33;;;;;;;50.30;28.33;;;5.80;99.90;;;;;;4932539;29;20063;-69
2022/11/28 10:04:10;;;;;;;49.20;28.60;;;5.90;99.90;;;;;;4930067;29;20075;-71
2022/11/28 10:06:46;;;;;;;49.75;26.95;;;5.90;99.90;;;;;;4932980;29;20482;-71
2022/11/28 10:09:24;;;;;;;50.08;29.75;;;5.70;99.90;;;;;;4932076;29;20183;-69
2022/11/28 10:11:58;;;;;;;55.65;30.63;;;5.90;99.90;;;;;;4932510;29;20688;-71
2022/11/28 10:14:45;;;;;;;48.97;30.55;;;6.00;99.90;;;;;;4932643;29;20032;-71
2022/11/28 10:17:35;;;;;;;52.35;29.63;;;6.00;99.90;;;;;;4932588;29;20059;-71
2022/11/28 10:20:31;;;;;;;46.00;28.67;;;6.10;99.90;;;;;;4919448;29;20071;-71
2022/11/28 10:23:12;;;;;;;49.92;27.80;;;6.20;99.90;;;;;;4932379;29;20040;-71
2022/11/28 10:25:44;;;;;;;38.97;24.23;;;6.30;99.90;;;;;;4931729;29;20044;-71
2022/11/28 10:28:17;;;;;;;44.90;25.88;;;6.20;99.90;;;;;;4930957;29;20114;-70
2022/11/28 10:30:49;;;;;;;46.75;26.13;;;6.30;99.90;;;;;;4986017;28;20073;-71
2022/11/28 10:33:26;;;;;;;46.88;28.70;;;6.50;99.90;;;;;;4989075;28;20037;-71
2022/11/28 10:36:00;;;;;;;45.63;27.23;;;6.30;99.90;;;;;;4980312;28;20057;-71
2022/11/28 10:38:30;;;;;;;49.03;28.90;;;6.30;99.90;;;;;;4990080;28;20491;-71
2022/11/28 10:41:06;;;;;;;48.08;26.17;;;6.40;99.90;;;;;;4991722;28;20455;-70
2022/11/28 10:43:52;;;;;;;44.80;25.17;;;6.40;99.90;;;;;;4991878;28;20037;-70
2022/11/28 10:46:45;;;;;;;37.25;22.40;;;6.60;99.90;;;;;;4992241;28;20034;-71
2022/11/28 10:49:43;;;;;;;44.47;24.08;;;6.40;99.90;;;;;;4991585;28;20022;-70
2022/11/28 10:52:22;;;;;;;38.15;22.02;;;6.50;99.90;;;;;;4986115;28;20392;-70
2022/11/28 10:54:51;;;;;;;42.85;24.13;;;6.70;99.90;;;;;;4987790;28;20026;-73
2022/11/28 10:57:27;;;;;;;39.65;22.15;;;6.40;99.90;;;;;;4992251;28;20134;-74
2022/11/28 11:00:19;;;;;;;41.33;22.70;;;6.60;99.90;;;;;;4991866;28;20022;-70
2022/11/28 11:02:47;;;;;;;39.60;20.88;;;6.70;99.90;;;;;;4991890;28;20504;-72
2022/11/28 11:05:19;;;;;;;36.90;22.45;;;6.60;99.90;;;;;;4991483;28;20034;-71
2022/11/28 11:08:18;;;;;;;38.72;22.45;;;6.70;99.90;;;;;;4989989;28;20023;-71
2022/11/28 11:11:03;;;;;;;35.50;21.02;;;6.80;99.90;;;;;;4969053;28;20489;-71
2022/11/28 11:13:32;;;;;;;41.72;23.02;;;6.90;99.90;;;;;;4969551;28;20093;-71
2022/11/28 11:15:59;;;;;;;34.97;20.38;;;7.00;99.90;;;;;;4969406;28;20038;-70
2022/11/28 11:18:27;;;;;;;38.70;21.33;;;6.70;99.90;;;;;;4967270;28;20069;-70
2022/11/28 11:21:20;;;;;;;36.03;21.08;;;6.60;99.90;;;;;;4964098;28;20038;-70
2022/11/28 11:23:47;;;;;;;39.30;22.77;;;6.80;99.90;;;;;;4958352;28;20031;-71
2022/11/28 11:26:28;;;;;;;36.35;22.23;;;6.60;99.90;;;;;;4967595;28;20031;-70
2022/11/28 11:28:55;;;;;;;37.42;22.13;;;6.60;99.90;;;;;;4963420;28;20441;-70
2022/11/28 11:31:29;;;;;;;39.53;26.25;;;6.60;99.90;;;;;;4964581;28;20031;-70
2022/11/28 11:34:17;;;;;;;38.30;21.92;;;6.60;99.90;;;;;;4967916;28;20035;-73
2022/11/28 11:36:43;;;;;;;35.75;20.10;;;6.80;99.90;;;;;;4959942;28;20062;-70
2022/11/28 11:39:11;;;;;;;38.05;22.33;;;6.80;99.90;;;;;;4972346;28;20386;-70
2022/11/28 11:41:40;;;;;;;45.85;24.92;;;6.70;99.90;;;;;;4960481;28;20379;-71
2022/11/28 11:44:14;;;;;;;38.20;22.58;;;6.70;99.90;;;;;;4954677;28;20043;-70
2022/11/28 11:47:07;;;;;;;37.28;21.65;;;6.70;99.90;;;;;;4969821;28;20429;-70
2022/11/28 11:49:37;;;;;;;33.57;20.93;;;6.70;99.90;;;;;;4995525;28;20065;-70
2022/11/28 11:52:11;;;;;;;37.75;21.38;;;6.80;99.90;;;;;;4994537;28;20271;-71
2022/11/28 11:55:11;;;;;;;39.60;21.90;;;6.90;99.90;;;;;;4989429;28;20038;-70
2022/11/28 11:57:42;;;;;;;35.53;20.80;;;6.80;99.90;;;;;;4916411;29;20071;-69
2022/11/28 12:00:11;;;;;;;34.85;19.08;;;6.80;99.90;;;;;;4899903;29;20044;-70
2022/11/28 12:02:55;;;;;;;;;;;6.90;99.90;;;;;;4915677;29;20044;-71
2022/11/28 12:05:30;;;;;;;35.90;18.02;;;6.90;99.90;;;;;;4915964;29;19934;-70
2022/11/28 12:08:00;;;;;;;35.88;21.15;;;6.90;99.90;;;;;;4911560;29;20107;-70
2022/11/28 12:10:33;;;;;;;33.20;19.38;;;6.90;99.90;;;;;;4915710;29;20036;-70
2022/11/28 12:13:01;;;;;;;36.40;21.65;;;6.90;99.90;;;;;;4903069;29;20032;-71
2022/11/28 12:15:34;;;;;;;29.38;18.13;;;6.90;99.90;;;;;;4916192;29;20123;-71
2022/11/28 12:18:37;;;;;;;47.58;25.55;;;7.10;99.90;;;;;;4914968;29;20052;-70
2022/11/28 12:21:21;;;;;;;53.78;32.17;;;7.10;99.90;;;;;;4915415;29;20131;-69
2022/11/28 12:24:08;;;;;;;45.40;28.65;;;7.10;99.90;;;;;;4920870;29;20039;-69
2022/11/28 12:26:39;;;;;;;37.35;23.33;;;7.10;99.90;;;;;;4915745;29;20032;-70
2022/11/28 12:29:11;;;;;;;38.20;23.58;;;7.10;99.90;;;;;;4915188;29;20047;-71
2022/11/28 12:31:36;;;;;;;46.78;26.98;;;7.10;99.90;;;;;;4915964;29;20496;-71
2022/11/28 12:34:23;;;;;;;41.10;24.75;;;7.20;99.90;;;;;;4930478;28;20042;-70
2022/11/28 12:36:58;;;;;;;38.28;22.17;;;7.20;99.90;;;;;;4974273;28;20045;-71
2022/11/28 12:39:58;;;;;;;34.10;19.77;;;7.20;99.90;;;;;;4992543;28;20050;-72
2022/11/28 12:42:33;;;;;;;32.40;18.52;;;7.20;99.90;;;;;;4991787;28;20064;-70
2022/11/28 12:45:13;;;;;;;27.88;16.35;;;7.10;99.90;;;;;;4982500;28;20034;-71
2022/11/28 12:47:51;;;;;;;29.48;17.73;;;7.10;99.90;;;;;;4993304;28;20014;-70
2022/11/28 12:50:20;;;;;;;26.35;14.80;;;7.20;99.90;;;;;;4993323;28;20469;-70
2022/11/28 12:53:13;;;;;;;29.75;17.52;;;7.20;99.90;;;;;;4990438;28;20424;-70
2022/11/28 12:55:55;;;;;;;24.58;14.43;;;7.30;99.90;;;;;;4994469;28;20061;-70
2022/11/28 12:58:23;;;;;;;28.52;15.90;;;7.20;99.90;;;;;;4992590;28;20493;-73
2022/11/28 13:00:54;;;;;;;29.08;16.17;;;7.30;99.90;;;;;;4994629;28;20034;-71
2022/11/28 13:03:58;;;;;;;23.52;13.25;;;7.20;99.90;;;;;;4986313;28;20420;-71